Clinton, Maine
Current Conditions -  °F | °C
As of 1:35 PM on Saturday 20 Dec 2014 (Local Time) from KWVL Reporting Station
Overcast Overcast  
Wind Chill: 16°   Ceiling: 1500
Heat Index: 23°   Visibility: 10mi
Dew Point: 14°   Wind: 6mph
Humidity: 68%   Direction: 60°ENE
Pressure: 30.27"   Gusts: NA
Location:  44.64°N, 69.5°W
Report Text: KWVL 201835Z 06005KT 10SM OVC015 M05/M10 A3027 RMK AO1
Loading
Personal Weather Stations






























Interactive Weather Map New forecast layout! Learn more

10-Day Weather Forecast

Advertisements
Track Severe Weather on mobile